Time;durP1;ratioP1;P1;durP2;ratioP2;P2;SDS_P1;SDS_P2;PMS_P1;PMS_P2;Temp;Humidity;BMP_temperature;BMP_pressure;BME280_temperature;BME280_humidity;BME280_pressure;Samples;Min_cycle;Max_cycle;Signal;HPM_P1;HPM_P2
2021/03/13 00:01:28;;;;;;;8.52;3.63;;;11.60;99.90;;;;;;4973571;28;20027;-75
2021/03/13 00:03:54;;;;;;;7.32;4.40;;;11.60;99.90;;;;;;4965804;28;20077;-75
2021/03/13 00:06:20;;;;;;;8.45;3.60;;;11.60;99.90;;;;;;4973204;28;20117;-77
2021/03/13 00:08:46;;;;;;;7.28;3.75;;;11.70;99.90;;;;;;4965237;28;20114;-75
2021/03/13 00:11:12;;;;;;;4.65;3.67;;;11.70;99.90;;;;;;4967901;28;20027;-74
2021/03/13 00:13:39;;;;;;;3.42;3.13;;;11.70;99.90;;;;;;4967009;28;20045;-75
2021/03/13 00:16:05;;;;;;;5.18;3.60;;;11.60;99.90;;;;;;4972873;28;20030;-79
2021/03/13 00:18:32;;;;;;;5.95;4.05;;;11.60;99.90;;;;;;4974643;28;20033;-75
2021/03/13 00:20:58;;;;;;;5.00;3.65;;;11.60;99.90;;;;;;4985605;28;20042;-75
2021/03/13 00:23:25;;;;;;;6.32;5.32;;;11.60;99.90;;;;;;4984319;28;20027;-75
2021/03/13 00:25:51;;;;;;;7.35;3.63;;;11.60;99.90;;;;;;4967855;28;20086;-78
2021/03/13 00:28:18;;;;;;;5.45;4.07;;;11.60;99.90;;;;;;4962449;28;20035;-76
2021/03/13 00:30:45;;;;;;;4.63;3.92;;;11.60;99.90;;;;;;4966851;28;20154;-76
2021/03/13 00:33:14;;;;;;;6.47;4.50;;;11.60;99.90;;;;;;4973115;28;20429;-75
2021/03/13 00:35:42;;;;;;;6.25;4.50;;;11.50;99.90;;;;;;4973452;28;20031;-78
2021/03/13 00:38:09;;;;;;;5.90;4.70;;;11.50;99.90;;;;;;4974763;28;20034;-76
2021/03/13 00:40:36;;;;;;;6.32;4.75;;;11.40;99.90;;;;;;4967993;28;20032;-77
2021/03/13 00:43:04;;;;;;;7.05;5.13;;;11.40;99.90;;;;;;4962129;28;20030;-79
2021/03/13 00:45:30;;;;;;;6.57;5.45;;;11.40;99.90;;;;;;4960945;28;20027;-78
2021/03/13 00:47:59;;;;;;;8.68;5.20;;;11.30;99.90;;;;;;4966614;28;20025;-75
2021/03/13 00:50:28;;;;;;;8.48;5.20;;;11.30;99.90;;;;;;4965450;28;20119;-77
2021/03/13 00:52:55;;;;;;;6.88;4.75;;;11.30;99.90;;;;;;4973072;28;20390;-75
2021/03/13 00:55:21;;;;;;;6.15;5.28;;;11.30;99.90;;;;;;4959194;28;20023;-76
2021/03/13 00:57:47;;;;;;;5.97;5.05;;;11.20;99.90;;;;;;4962883;28;20079;-75
2021/03/13 01:00:15;;;;;;;5.70;5.10;;;11.20;99.90;;;;;;4960600;28;20052;-75
2021/03/13 01:02:41;;;;;;;8.55;4.75;;;11.20;99.90;;;;;;4957631;28;20027;-76
2021/03/13 01:05:08;;;;;;;7.32;4.78;;;11.20;99.90;;;;;;4958464;28;20162;-77
2021/03/13 01:07:35;;;;;;;7.22;5.90;;;11.10;99.90;;;;;;4970694;28;20038;-75
2021/03/13 01:10:05;;;;;;;8.18;6.80;;;11.10;99.90;;;;;;4969545;28;20410;-77
2021/03/13 01:12:30;;;;;;;7.22;5.85;;;11.20;99.90;;;;;;4971416;28;20023;-75
2021/03/13 01:14:56;;;;;;;6.72;6.03;;;11.10;99.90;;;;;;4973672;28;20023;-83
2021/03/13 01:17:22;;;;;;;10.10;6.22;;;11.10;99.90;;;;;;4977030;28;20555;-77
2021/03/13 01:19:48;;;;;;;6.80;6.10;;;11.10;99.90;;;;;;4975167;28;20421;-78
2021/03/13 01:22:13;;;;;;;8.77;6.68;;;11.20;99.90;;;;;;4968990;28;20042;-77
2021/03/13 01:24:41;;;;;;;7.28;6.50;;;11.10;99.90;;;;;;4978569;28;20094;-76
2021/03/13 01:27:08;;;;;;;8.45;6.60;;;11.20;99.90;;;;;;4987977;28;20039;-76
2021/03/13 01:29:35;;;;;;;8.07;7.30;;;11.20;99.90;;;;;;4966878;28;20030;-77
2021/03/13 01:32:03;;;;;;;11.05;7.55;;;11.10;99.90;;;;;;4977944;28;20027;-76
2021/03/13 01:34:32;;;;;;;13.23;8.70;;;11.00;99.90;;;;;;4976863;28;20031;-76
2021/03/13 01:36:59;;;;;;;10.77;8.25;;;11.10;99.90;;;;;;4966971;28;20031;-78
2021/03/13 01:39:25;;;;;;;10.32;9.05;;;11.00;99.90;;;;;;4959632;28;20030;-78
2021/03/13 01:41:51;;;;;;;8.88;7.97;;;11.00;99.90;;;;;;4967563;28;20031;-76
2021/03/13 01:44:17;;;;;;;8.70;7.80;;;11.00;99.90;;;;;;4958583;28;20028;-83
2021/03/13 01:46:43;;;;;;;8.93;7.80;;;10.90;99.90;;;;;;4969201;28;20031;-79
2021/03/13 01:49:17;;;;;;;10.98;8.38;;;10.90;99.90;;;;;;4970026;28;20481;-77
2021/03/13 01:51:43;;;;;;;8.32;6.55;;;10.90;99.90;;;;;;4974506;28;20109;-75
2021/03/13 01:54:09;;;;;;;7.53;6.82;;;10.90;99.90;;;;;;4971901;28;20066;-76
2021/03/13 01:56:36;;;;;;;7.00;6.28;;;10.80;99.90;;;;;;4977073;28;20027;-78
2021/03/13 01:59:02;;;;;;;7.22;6.47;;;10.80;99.90;;;;;;4970228;28;20019;-76
2021/03/13 02:01:28;;;;;;;6.22;5.63;;;10.80;99.90;;;;;;4971329;28;20561;-78
2021/03/13 02:03:54;;;;;;;7.22;5.35;;;10.80;99.90;;;;;;4969368;28;20070;-78
2021/03/13 02:06:20;;;;;;;6.32;4.00;;;10.70;99.90;;;;;;4976995;28;20022;-75
2021/03/13 02:09:13;;;;;;;8.10;5.50;;;10.70;99.90;;;;;;4967584;28;20093;-75
2021/03/13 02:11:49;;;;;;;5.72;4.72;;;10.70;99.90;;;;;;4965692;28;20030;-75
2021/03/13 02:14:35;;;;;;;7.75;5.20;;;10.70;99.90;;;;;;4958071;29;20562;-76
2021/03/13 02:17:27;;;;;;;4.97;4.47;;;10.70;99.90;;;;;;4971973;28;20106;-76
2021/03/13 02:20:04;;;;;;;5.80;4.78;;;10.80;99.90;;;;;;4974114;28;20029;-76
2021/03/13 02:22:36;;;;;;;5.78;5.10;;;10.80;99.90;;;;;;4973935;28;20039;-77
2021/03/13 02:25:54;;;;;;;6.68;5.38;;;10.80;99.90;;;;;;4967522;28;20030;-77
2021/03/13 02:28:55;;;;;;;5.78;5.22;;;10.80;99.90;;;;;;4947286;28;20089;-75
2021/03/13 02:31:25;;;;;;;4.82;4.28;;;10.80;99.90;;;;;;4907446;29;20076;-73
2021/03/13 02:33:58;;;;;;;5.03;4.55;;;10.80;99.90;;;;;;4964202;28;20046;-74
2021/03/13 02:36:26;;;;;;;7.03;4.90;;;10.80;99.90;;;;;;4965691;28;20038;-78
2021/03/13 02:39:11;;;;;;;6.55;4.65;;;10.70;99.90;;;;;;4965675;28;20020;-75
2021/03/13 02:41:52;;;;;;;4.63;4.22;;;10.70;99.90;;;;;;4965565;28;20031;-74
2021/03/13 02:44:19;;;;;;;5.18;3.80;;;10.60;99.90;;;;;;4974957;28;20022;-74
2021/03/13 02:46:50;;;;;;;4.57;4.18;;;10.70;99.90;;;;;;4973731;28;20033;-74
2021/03/13 02:49:19;;;;;;;4.97;4.20;;;10.70;99.90;;;;;;4974541;28;20442;-74
2021/03/13 02:51:46;;;;;;;5.25;4.38;;;10.70;99.90;;;;;;4960980;28;20517;-78
2021/03/13 02:54:12;;;;;;;6.78;4.22;;;10.80;99.90;;;;;;4966558;28;20023;-74
2021/03/13 02:56:42;;;;;;;3.60;3.25;;;10.80;99.90;;;;;;4964771;28;20031;-74
2021/03/13 02:59:09;;;;;;;7.20;4.22;;;10.80;99.90;;;;;;4955572;28;20074;-74
2021/03/13 03:01:36;;;;;;;4.70;4.15;;;10.80;99.90;;;;;;4966704;28;20014;-78
2021/03/13 03:04:04;;;;;;;7.45;3.78;;;10.80;99.90;;;;;;4957135;28;20166;-74
2021/03/13 03:06:38;;;;;;;7.90;3.85;;;10.80;99.90;;;;;;4971925;28;20019;-76
2021/03/13 03:09:06;;;;;;;4.35;3.95;;;10.70;99.90;;;;;;4968556;28;20022;-75
2021/03/13 03:11:33;;;;;;;5.00;3.60;;;10.70;99.90;;;;;;4982026;28;20029;-79
2021/03/13 03:13:59;;;;;;;5.78;3.90;;;10.60;99.90;;;;;;4975846;28;20070;-75
2021/03/13 03:16:25;;;;;;;6.18;3.70;;;10.80;99.90;;;;;;4968432;28;20035;-75
2021/03/13 03:18:55;;;;;;;4.90;3.28;;;10.80;99.90;;;;;;4974663;28;20493;-76
2021/03/13 03:21:22;;;;;;;3.70;3.25;;;10.70;99.90;;;;;;4968172;28;20027;-77
2021/03/13 03:23:48;;;;;;;6.15;5.25;;;10.70;99.90;;;;;;4967542;28;20537;-76
2021/03/13 03:26:14;;;;;;;6.00;4.47;;;10.60;99.90;;;;;;4964397;28;20023;-76
2021/03/13 03:28:40;;;;;;;4.05;3.42;;;10.50;99.90;;;;;;4958474;28;20117;-76
2021/03/13 03:31:06;;;;;;;4.40;3.95;;;10.50;99.90;;;;;;4964476;28;20070;-78
2021/03/13 03:33:32;;;;;;;4.55;4.10;;;10.50;99.90;;;;;;4959746;28;20038;-75
2021/03/13 03:35:58;;;;;;;4.53;3.40;;;10.40;99.90;;;;;;4972341;28;20023;-75
2021/03/13 03:38:25;;;;;;;4.75;3.67;;;10.30;99.90;;;;;;4972772;28;20018;-75
2021/03/13 03:40:51;;;;;;;3.30;3.00;;;10.40;99.90;;;;;;4969549;28;20079;-74
2021/03/13 03:43:37;;;;;;;4.88;4.30;;;10.30;99.90;;;;;;4974559;28;20027;-75
2021/03/13 03:46:04;;;;;;;3.38;3.08;;;10.40;99.90;;;;;;4963699;28;20027;-77
2021/03/13 03:48:32;;;;;;;4.70;3.40;;;10.30;99.90;;;;;;4963517;28;20030;-78
2021/03/13 03:51:00;;;;;;;4.13;3.58;;;10.30;99.90;;;;;;4968894;28;20047;-78
2021/03/13 03:53:33;;;;;;;5.80;3.15;;;10.30;99.90;;;;;;4958067;28;20053;-76
2021/03/13 03:56:01;;;;;;;5.63;4.00;;;10.30;99.90;;;;;;4962756;28;20027;-76
2021/03/13 03:58:32;;;;;;;4.28;3.08;;;10.30;99.90;;;;;;4962950;28;20026;-75
2021/03/13 04:01:00;;;;;;;5.10;3.65;;;10.30;99.90;;;;;;4964531;28;20027;-79
2021/03/13 04:03:28;;;;;;;4.28;3.55;;;10.30;99.90;;;;;;4963995;28;20098;-78
2021/03/13 04:05:54;;;;;;;3.38;3.08;;;10.30;99.90;;;;;;4964805;28;20106;-74
2021/03/13 04:08:21;;;;;;;3.47;3.08;;;10.30;99.90;;;;;;4959661;28;20397;-74
2021/03/13 04:10:52;;;;;;;3.78;3.47;;;10.30;99.90;;;;;;4979356;28;20118;-78
2021/03/13 04:13:21;;;;;;;3.20;2.97;;;10.30;99.90;;;;;;4959667;28;20030;-74
2021/03/13 04:15:48;;;;;;;3.33;3.03;;;10.30;99.90;;;;;;4965284;28;20473;-78
2021/03/13 04:18:16;;;;;;;3.65;3.35;;;10.30;99.90;;;;;;4962317;28;20015;-79
2021/03/13 04:20:46;;;;;;;3.47;3.15;;;10.20;99.90;;;;;;4970186;28;20023;-74
2021/03/13 04:23:13;;;;;;;3.67;3.35;;;10.20;99.90;;;;;;4962337;28;20026;-77
2021/03/13 04:25:41;;;;;;;3.60;3.20;;;10.20;99.90;;;;;;4962826;28;20023;-77
2021/03/13 04:28:07;;;;;;;3.47;3.17;;;10.20;99.90;;;;;;4958817;28;20033;-75
2021/03/13 04:30:33;;;;;;;3.13;2.80;;;10.10;99.90;;;;;;4972807;28;20031;-75
2021/03/13 04:33:01;;;;;;;5.97;3.38;;;10.20;99.90;;;;;;4975168;28;20031;-77
2021/03/13 04:35:28;;;;;;;3.85;3.47;;;10.10;99.90;;;;;;4966378;28;20027;-75
2021/03/13 04:37:56;;;;;;;3.85;3.50;;;10.10;99.90;;;;;;4961942;28;20102;-75
2021/03/13 04:40:24;;;;;;;5.45;3.60;;;10.10;99.90;;;;;;4961344;28;20035;-77
2021/03/13 04:42:50;;;;;;;4.00;3.67;;;10.10;99.90;;;;;;4966185;28;20026;-77
2021/03/13 04:45:17;;;;;;;3.42;3.10;;;10.10;99.90;;;;;;4964971;28;20114;-78
2021/03/13 04:47:48;;;;;;;3.17;2.97;;;10.00;99.90;;;;;;4971054;28;20086;-75
2021/03/13 04:50:23;;;;;;;3.78;3.22;;;10.10;99.90;;;;;;4961602;28;20113;-77
2021/03/13 04:52:50;;;;;;;6.20;3.80;;;10.10;99.90;;;;;;4963164;28;20031;-76
2021/03/13 04:55:16;;;;;;;4.22;3.13;;;10.10;99.90;;;;;;4980985;28;20034;-75
2021/03/13 04:57:42;;;;;;;3.83;3.53;;;10.10;99.90;;;;;;4983632;28;20027;-74
2021/03/13 05:00:11;;;;;;;5.72;3.58;;;10.10;99.90;;;;;;4985457;28;20027;-73
2021/03/13 05:02:37;;;;;;;4.60;4.20;;;10.10;99.90;;;;;;4966412;28;20027;-75
2021/03/13 05:05:04;;;;;;;5.90;4.45;;;10.10;99.90;;;;;;4958389;28;20085;-76
2021/03/13 05:07:29;;;;;;;5.55;4.45;;;10.20;99.90;;;;;;4965098;28;20075;-77
2021/03/13 05:09:55;;;;;;;5.05;3.90;;;10.10;99.90;;;;;;4962241;28;20055;-75
2021/03/13 05:12:21;;;;;;;4.80;3.88;;;10.10;99.90;;;;;;4968884;28;20034;-76
2021/03/13 05:14:47;;;;;;;6.13;3.85;;;10.10;99.90;;;;;;4971612;28;20034;-76
2021/03/13 05:17:14;;;;;;;11.43;4.50;;;10.10;99.90;;;;;;4963172;28;20031;-76
2021/03/13 05:19:40;;;;;;;5.38;4.18;;;10.10;99.90;;;;;;4958170;28;20023;-75
2021/03/13 05:22:06;;;;;;;4.30;3.78;;;10.10;99.90;;;;;;4964108;28;20027;-75
2021/03/13 05:24:32;;;;;;;5.93;4.45;;;10.10;99.90;;;;;;4969630;28;20101;-75
2021/03/13 05:26:58;;;;;;;4.00;3.65;;;10.10;99.90;;;;;;4963537;28;20422;-75
2021/03/13 05:29:24;;;;;;;5.78;4.57;;;10.10;99.90;;;;;;4971728;28;20552;-75
2021/03/13 05:31:50;;;;;;;4.93;4.28;;;10.00;99.90;;;;;;4963485;28;20031;-75
2021/03/13 05:34:16;;;;;;;7.38;4.43;;;10.00;99.90;;;;;;4955925;28;20031;-75
2021/03/13 05:36:42;;;;;;;6.40;3.78;;;10.00;99.90;;;;;;4966005;28;20112;-76
2021/03/13 05:39:08;;;;;;;7.82;3.67;;;10.00;99.90;;;;;;4958206;28;20043;-76
2021/03/13 05:41:36;;;;;;;4.97;4.47;;;10.00;99.90;;;;;;4965907;28;20027;-77
2021/03/13 05:44:05;;;;;;;6.15;3.60;;;10.00;99.90;;;;;;4956563;28;20023;-76
2021/03/13 05:46:38;;;;;;;5.45;4.40;;;10.10;99.90;;;;;;4962416;28;20015;-75
2021/03/13 05:49:05;;;;;;;7.28;3.92;;;10.10;99.90;;;;;;4958195;28;20063;-76
2021/03/13 05:51:36;;;;;;;4.47;3.60;;;10.20;99.90;;;;;;4959641;28;20382;-76
2021/03/13 05:54:05;;;;;;;4.07;3.67;;;10.20;99.90;;;;;;4967318;28;20379;-77
2021/03/13 05:56:31;;;;;;;3.63;3.30;;;10.30;99.90;;;;;;4962085;28;20401;-75
2021/03/13 05:59:01;;;;;;;3.65;3.28;;;10.30;99.90;;;;;;4973510;28;20030;-74
2021/03/13 06:01:29;;;;;;;7.80;3.80;;;10.30;99.90;;;;;;4969543;28;20023;-75
2021/03/13 06:03:56;;;;;;;6.28;4.03;;;10.30;99.90;;;;;;4969102;28;20038;-75
2021/03/13 06:06:24;;;;;;;4.70;3.58;;;10.30;99.90;;;;;;4968502;28;20031;-75
2021/03/13 06:08:51;;;;;;;4.97;3.72;;;10.30;99.90;;;;;;4968726;28;20030;-75
2021/03/13 06:11:18;;;;;;;4.10;3.70;;;10.40;99.90;;;;;;4962185;28;20506;-76
2021/03/13 06:13:44;;;;;;;8.18;6.40;;;10.40;99.90;;;;;;4969243;28;20477;-76
2021/03/13 06:16:10;;;;;;;4.95;3.42;;;10.30;99.90;;;;;;4964889;28;20034;-76
2021/03/13 06:18:48;;;;;;;6.70;4.47;;;10.30;99.90;;;;;;4966897;28;20485;-75
2021/03/13 06:21:34;;;;;;;8.95;3.35;;;10.40;99.90;;;;;;4960699;28;20026;-77
2021/03/13 06:24:32;;;;;;;4.32;3.38;;;10.40;99.90;;;;;;4968732;28;20014;-75
2021/03/13 06:26:59;;;;;;;4.65;4.18;;;10.50;99.90;;;;;;4976784;28;20026;-78
2021/03/13 06:29:26;;;;;;;4.18;3.67;;;10.50;99.90;;;;;;4968794;28;20565;-76
2021/03/13 06:32:04;;;;;;;7.25;5.35;;;10.60;99.90;;;;;;4969769;28;20494;-76
2021/03/13 06:34:30;;;;;;;5.57;3.55;;;10.60;99.90;;;;;;4971931;28;20062;-75
2021/03/13 06:37:28;;;;;;;4.60;4.20;;;10.80;99.90;;;;;;4970609;28;20031;-78
2021/03/13 06:39:56;;;;;;;6.60;3.70;;;10.90;99.90;;;;;;4968802;28;20155;-75
2021/03/13 06:42:26;;;;;;;4.90;3.90;;;10.90;99.90;;;;;;4976093;28;20015;-75
2021/03/13 06:44:55;;;;;;;5.18;3.63;;;11.00;99.90;;;;;;4966456;28;20062;-75
2021/03/13 06:47:34;;;;;;;4.85;4.13;;;11.00;99.90;;;;;;4965428;28;20058;-75
2021/03/13 06:50:28;;;;;;;8.40;4.15;;;11.10;99.90;;;;;;4962291;28;20051;-76
2021/03/13 06:53:08;;;;;;;4.00;3.60;;;11.20;99.90;;;;;;4971171;28;20027;-77
2021/03/13 06:55:35;;;;;;;4.10;3.70;;;11.30;99.90;;;;;;4973137;28;20081;-75
2021/03/13 06:58:11;;;;;;;6.88;4.45;;;11.30;99.90;;;;;;4981366;28;20071;-75
2021/03/13 07:00:37;;;;;;;4.63;4.18;;;11.30;99.90;;;;;;4975593;28;20050;-75
2021/03/13 07:03:11;;;;;;;5.15;4.10;;;11.20;99.90;;;;;;4958729;28;20018;-75
2021/03/13 07:05:41;;;;;;;4.38;3.97;;;11.30;99.90;;;;;;4966802;28;20078;-75
2021/03/13 07:08:30;;;;;;;4.72;2.95;;;11.50;99.90;;;;;;4976190;28;20026;-76
2021/03/13 07:11:02;;;;;;;7.72;4.97;;;11.60;99.90;;;;;;4968241;28;20019;-80
2021/03/13 07:13:36;;;;;;;6.68;4.05;;;11.80;99.90;;;;;;4964182;28;20114;-75
2021/03/13 07:16:21;;;;;;;6.03;3.25;;;11.80;99.90;;;;;;4962055;28;20178;-75
2021/03/13 07:18:47;;;;;;;4.22;3.60;;;11.90;99.90;;;;;;4966802;28;20023;-76
2021/03/13 07:21:17;;;;;;;5.80;4.57;;;11.80;99.90;;;;;;4970340;28;20119;-75
2021/03/13 07:23:48;;;;;;;8.15;3.40;;;11.90;99.90;;;;;;4963720;28;20034;-76
2021/03/13 07:26:16;;;;;;;6.05;3.83;;;11.90;99.90;;;;;;4966468;28;20046;-76
2021/03/13 07:28:43;;;;;;;3.97;3.58;;;12.10;99.90;;;;;;4959605;28;20051;-76
2021/03/13 07:31:11;;;;;;;6.13;3.22;;;12.10;99.90;;;;;;4966181;28;20031;-79
2021/03/13 07:33:38;;;;;;;5.30;3.47;;;12.10;99.90;;;;;;4966374;28;20688;-77
2021/03/13 07:36:10;;;;;;;6.28;3.45;;;12.20;99.90;;;;;;4970783;28;20049;-76
2021/03/13 07:38:40;;;;;;;9.38;4.50;;;12.30;99.90;;;;;;4968719;28;20050;-76
2021/03/13 07:41:09;;;;;;;4.80;4.30;;;12.30;99.90;;;;;;4972057;28;20033;-76
2021/03/13 07:43:38;;;;;;;8.48;3.92;;;12.40;99.90;;;;;;4968696;28;20441;-77
2021/03/13 07:46:08;;;;;;;4.10;3.67;;;12.30;99.90;;;;;;4970392;28;20058;-75
2021/03/13 07:48:36;;;;;;;4.90;4.40;;;12.30;99.90;;;;;;4963448;28;20054;-76
2021/03/13 07:51:02;;;;;;;9.43;4.53;;;12.30;99.90;;;;;;4961312;28;20058;-76
2021/03/13 07:53:30;;;;;;;5.38;3.97;;;12.40;99.90;;;;;;4965541;28;20033;-76
2021/03/13 07:55:56;;;;;;;4.90;3.72;;;12.50;99.90;;;;;;4970526;28;20026;-64
2021/03/13 07:58:23;;;;;;;5.05;4.15;;;12.60;99.90;;;;;;4971721;28;20026;-67
2021/03/13 08:00:49;;;;;;;11.40;3.83;;;12.50;99.90;;;;;;4969190;28;20035;-67
2021/03/13 08:03:27;;;;;;;6.53;4.28;;;12.50;99.90;;;;;;4955018;28;20037;-67
2021/03/13 08:05:58;;;;;;;5.95;3.92;;;12.60;99.90;;;;;;4969472;28;20046;-65
2021/03/13 08:08:40;;;;;;;6.75;5.30;;;12.70;99.90;;;;;;4974841;28;20022;-69
2021/03/13 08:11:13;;;;;;;6.45;3.65;;;12.80;99.90;;;;;;4959248;28;20028;-67
2021/03/13 08:13:39;;;;;;;4.28;3.88;;;12.90;99.90;;;;;;4955641;28;20042;-68
2021/03/13 08:16:08;;;;;;;4.28;3.88;;;13.00;99.90;;;;;;4972836;28;20469;-63
2021/03/13 08:18:51;;;;;;;6.45;3.42;;;13.00;99.90;;;;;;4974551;28;20034;-66
2021/03/13 08:21:20;;;;;;;6.35;4.57;;;13.10;99.90;;;;;;4974350;28;20077;-65
2021/03/13 08:23:50;;;;;;;7.97;3.65;;;13.30;99.90;;;;;;4972453;28;20022;-71
2021/03/13 08:26:18;;;;;;;7.50;4.15;;;13.40;99.90;;;;;;4966797;28;20027;-70
2021/03/13 08:31:24;;;;;;;4.25;3.80;;;13.60;99.90;;;;;;4973049;28;20039;-63
2021/03/13 08:33:54;;;;;;;5.80;3.28;;;13.50;99.90;;;;;;4973674;28;20145;-69
2021/03/13 08:36:26;;;;;;;6.20;3.33;;;13.50;99.90;;;;;;4967906;28;20446;-65
2021/03/13 08:39:06;;;;;;;4.18;3.75;;;13.60;99.90;;;;;;4973595;28;20042;-63
2021/03/13 08:44:10;;;;;;;6.32;3.60;;;13.70;99.90;;;;;;4974130;28;20809;-63
2021/03/13 08:46:47;;;;;;;10.95;3.92;;;13.60;99.90;;;;;;4968475;28;20055;-64
2021/03/13 08:49:40;;;;;;;4.85;3.70;;;13.70;99.90;;;;;;4973473;28;20033;-70
2021/03/13 08:52:09;;;;;;;13.43;4.60;;;13.90;99.90;;;;;;4959682;28;20039;-64
2021/03/13 08:54:48;;;;;;;7.88;4.38;;;14.00;99.90;;;;;;4972687;28;20055;-62
2021/03/13 08:57:16;;;;;;;7.10;4.13;;;14.00;99.90;;;;;;4957778;28;20410;-71
2021/03/13 08:59:59;;;;;;;9.98;3.97;;;14.10;99.90;;;;;;4970092;28;20027;-66
2021/03/13 09:02:39;;;;;;;6.07;4.90;;;14.20;99.90;;;;;;4965608;28;20469;-67
2021/03/13 09:05:16;;;;;;;5.03;3.85;;;14.40;99.90;;;;;;4959468;28;20038;-70
2021/03/13 09:07:51;;;;;;;11.48;6.22;;;14.50;99.90;;;;;;4970169;28;20027;-74
2021/03/13 09:10:17;;;;;;;11.55;6.95;;;14.60;99.90;;;;;;4969356;28;20545;-73
2021/03/13 09:12:44;;;;;;;16.58;5.82;;;14.70;99.90;;;;;;4969304;28;20030;-73
2021/03/13 09:15:11;;;;;;;10.38;5.53;;;14.80;99.90;;;;;;4966705;28;20087;-74
2021/03/13 09:17:37;;;;;;;10.48;6.00;;;15.10;99.90;;;;;;4956991;28;20023;-74
2021/03/13 09:20:07;;;;;;;11.88;7.35;;;15.20;99.90;;;;;;4965723;28;20433;-73
2021/03/13 09:22:32;;;;;;;12.20;6.28;;;15.40;99.90;;;;;;4988246;28;20019;-74
2021/03/13 09:25:05;;;;;;;11.70;6.55;;;15.50;99.90;;;;;;4974693;28;20058;-74
2021/03/13 09:27:37;;;;;;;10.60;7.25;;;15.80;99.90;;;;;;4954962;28;20062;-74
2021/03/13 09:30:08;;;;;;;11.25;6.95;;;15.80;99.90;;;;;;4974794;28;20094;-74
2021/03/13 09:32:42;;;;;;;14.05;7.50;;;15.80;99.90;;;;;;4965042;28;20130;-74
2021/03/13 09:35:08;;;;;;;16.80;7.10;;;15.90;99.90;;;;;;4973359;28;20026;-74
2021/03/13 09:37:34;;;;;;;13.43;7.05;;;15.90;99.90;;;;;;4975036;28;20026;-74
2021/03/13 09:40:12;;;;;;;15.15;7.30;;;15.80;99.90;;;;;;4975131;28;20019;-75
2021/03/13 09:42:39;;;;;;;15.80;9.40;;;16.00;99.90;;;;;;4956985;28;20416;-74
2021/03/13 09:45:11;;;;;;;11.05;6.97;;;15.60;99.90;;;;;;4973330;28;20027;-74
2021/03/13 09:47:55;;;;;;;11.23;7.80;;;15.20;99.90;;;;;;4971337;28;20023;-74
2021/03/13 09:50:26;;;;;;;8.38;5.78;;;14.80;99.90;;;;;;4992829;28;20041;-74
2021/03/13 09:52:52;;;;;;;12.95;6.63;;;14.70;99.90;;;;;;4975466;28;20030;-74
2021/03/13 09:55:21;;;;;;;13.55;7.95;;;14.60;99.90;;;;;;4975321;28;20039;-73
2021/03/13 09:57:52;;;;;;;80.40;11.48;;;14.50;99.90;;;;;;4970860;28;20027;-73
2021/03/13 10:00:25;;;;;;;15.63;8.57;;;14.40;99.90;;;;;;4971045;28;20069;-74
2021/03/13 10:02:53;;;;;;;23.83;8.43;;;14.40;99.90;;;;;;4974789;28;20096;-73
2021/03/13 10:05:21;;;;;;;13.60;10.57;;;14.30;99.90;;;;;;4976966;28;20058;-73
2021/03/13 10:07:48;;;;;;;14.07;10.10;;;14.30;99.90;;;;;;4976395;28;20497;-74
2021/03/13 10:10:24;;;;;;;23.85;10.57;;;14.20;99.90;;;;;;4973760;28;20953;-73
2021/03/13 10:12:55;;;;;;;13.65;9.07;;;14.00;99.90;;;;;;4978494;28;20037;-76
2021/03/13 10:15:25;;;;;;;13.43;8.07;;;13.90;99.90;;;;;;4975717;28;20629;-75
2021/03/13 10:18:07;;;;;;;17.67;7.95;;;14.00;99.90;;;;;;4969712;28;20103;-75
2021/03/13 10:20:53;;;;;;;15.63;8.23;;;14.00;99.90;;;;;;4981026;28;20077;-75
2021/03/13 10:23:21;;;;;;;17.35;9.88;;;13.80;99.90;;;;;;4973623;28;20405;-75
2021/03/13 10:26:08;;;;;;;19.67;9.65;;;13.60;99.90;;;;;;4977185;28;20486;-75
2021/03/13 10:28:36;;;;;;;21.90;12.15;;;13.80;99.90;;;;;;4973526;28;20481;-75
2021/03/13 10:31:10;;;;;;;26.45;14.80;;;13.80;99.90;;;;;;4975633;28;20026;-75
2021/03/13 10:33:40;;;;;;;19.15;12.02;;;13.60;99.90;;;;;;4974352;28;20061;-75
2021/03/13 10:36:07;;;;;;;21.83;14.70;;;13.60;99.90;;;;;;4972159;28;20027;-75
2021/03/13 10:38:40;;;;;;;20.42;13.30;;;13.60;99.90;;;;;;4975061;28;20054;-73
2021/03/13 10:41:08;;;;;;;18.27;12.82;;;13.50;99.90;;;;;;4962324;28;20762;-73
2021/03/13 10:43:42;;;;;;;20.85;12.60;;;13.20;99.90;;;;;;4957393;28;20035;-72
2021/03/13 10:46:18;;;;;;;22.85;13.13;;;13.00;99.90;;;;;;4970198;28;20027;-73
2021/03/13 10:48:47;;;;;;;29.08;14.77;;;13.10;99.90;;;;;;4976297;28;20035;-73
2021/03/13 10:51:29;;;;;;;25.25;15.00;;;13.10;99.90;;;;;;4975201;28;20456;-73
2021/03/13 10:53:57;;;;;;;27.85;16.63;;;13.20;99.90;;;;;;4976442;28;20022;-73
2021/03/13 10:56:23;;;;;;;28.65;16.90;;;13.20;99.90;;;;;;4975196;28;20081;-73
2021/03/13 10:58:51;;;;;;;23.02;17.50;;;13.40;99.90;;;;;;4976116;28;20026;-74
2021/03/13 11:01:19;;;;;;;26.00;15.90;;;13.40;99.90;;;;;;4971788;28;20473;-73
2021/03/13 11:03:46;;;;;;;33.50;19.08;;;13.70;99.90;;;;;;4982666;28;20034;-74
2021/03/13 11:06:28;;;;;;;31.40;17.48;;;14.00;99.90;;;;;;4975377;28;20027;-73
2021/03/13 11:08:56;;;;;;;20.27;16.02;;;14.00;99.90;;;;;;4976493;28;20027;-74
2021/03/13 11:11:22;;;;;;;28.15;16.45;;;14.20;99.90;;;;;;4974454;28;20528;-73
2021/03/13 11:13:48;;;;;;;27.85;17.05;;;14.20;99.90;;;;;;4975302;28;20047;-73
2021/03/13 11:16:14;;;;;;;30.15;15.57;;;14.00;99.90;;;;;;4974224;28;20803;-73
2021/03/13 11:18:40;;;;;;;23.88;17.25;;;13.90;99.90;;;;;;4974516;28;20023;-73
2021/03/13 11:21:07;;;;;;;24.13;15.77;;;13.80;99.90;;;;;;4971357;28;20685;-73
2021/03/13 11:23:33;;;;;;;25.17;16.17;;;13.80;99.90;;;;;;4964159;28;20641;-73
2021/03/13 11:25:59;;;;;;;24.25;16.27;;;13.60;99.90;;;;;;4974063;28;20030;-73
2021/03/13 11:28:25;;;;;;;29.45;19.08;;;13.50;99.90;;;;;;4972539;28;20518;-73
2021/03/13 11:30:51;;;;;;;25.27;18.52;;;13.40;99.90;;;;;;4974832;28;20077;-73
2021/03/13 11:33:17;;;;;;;28.55;17.90;;;13.30;99.90;;;;;;4973436;28;20027;-73
2021/03/13 11:35:43;;;;;;;23.38;18.63;;;13.20;99.90;;;;;;4975738;28;20432;-73
2021/03/13 11:38:09;;;;;;;35.22;20.70;;;13.10;99.90;;;;;;4973494;28;20038;-73
2021/03/13 11:40:35;;;;;;;26.48;18.85;;;13.10;99.90;;;;;;4973859;28;20034;-73
2021/03/13 11:43:01;;;;;;;26.35;18.00;;;13.20;99.90;;;;;;4975346;28;20031;-73
2021/03/13 11:45:29;;;;;;;30.80;18.63;;;13.20;99.90;;;;;;4973541;28;20089;-74
2021/03/13 11:47:56;;;;;;;24.92;18.80;;;13.40;99.90;;;;;;4975213;28;20027;-73
2021/03/13 11:50:27;;;;;;;37.75;20.52;;;13.50;99.90;;;;;;4973228;28;20050;-74
2021/03/13 11:52:55;;;;;;;24.88;18.58;;;13.60;99.90;;;;;;4973291;28;20485;-73
2021/03/13 11:55:21;;;;;;;30.42;19.45;;;13.50;99.90;;;;;;4962425;28;20480;-73
2021/03/13 11:57:47;;;;;;;26.50;20.33;;;13.30;99.90;;;;;;4974574;28;20645;-73
2021/03/13 12:00:14;;;;;;;29.63;18.40;;;13.40;99.90;;;;;;4975029;28;20054;-74
2021/03/13 12:02:40;;;;;;;21.95;18.00;;;13.60;99.90;;;;;;4973683;28;20106;-74
2021/03/13 12:05:08;;;;;;;24.05;15.90;;;13.80;99.90;;;;;;4973155;28;20524;-74
2021/03/13 12:07:35;;;;;;;25.15;18.13;;;13.80;99.90;;;;;;4973322;28;20031;-73
2021/03/13 12:10:01;;;;;;;25.55;16.00;;;13.80;99.90;;;;;;4972506;28;20174;-74
2021/03/13 12:12:27;;;;;;;32.25;16.40;;;13.80;99.90;;;;;;4974170;28;20051;-73
2021/03/13 12:14:53;;;;;;;21.58;15.32;;;13.80;99.90;;;;;;4973976;28;20461;-73
2021/03/13 12:17:19;;;;;;;30.15;18.90;;;13.60;99.90;;;;;;4973455;28;20026;-73
2021/03/13 12:19:46;;;;;;;26.48;16.13;;;13.60;99.90;;;;;;4974454;28;20385;-73
2021/03/13 12:22:14;;;;;;;29.17;19.88;;;13.60;99.90;;;;;;4975323;28;20461;-74
2021/03/13 12:24:40;;;;;;;29.38;19.48;;;13.60;99.90;;;;;;4974301;28;20081;-73
2021/03/13 12:27:06;;;;;;;28.42;18.55;;;13.40;99.90;;;;;;4974577;28;20035;-74
2021/03/13 12:29:32;;;;;;;24.20;18.08;;;13.30;99.90;;;;;;4973755;28;20098;-74
2021/03/13 12:31:59;;;;;;;30.70;20.52;;;13.40;99.90;;;;;;4975577;28;20038;-73
2021/03/13 12:34:24;;;;;;;20.75;18.50;;;13.50;99.90;;;;;;4974566;28;20022;-74
2021/03/13 12:36:51;;;;;;;25.73;19.00;;;13.60;99.90;;;;;;4974767;28;20092;-74
2021/03/13 12:39:17;;;;;;;26.67;20.15;;;13.80;99.90;;;;;;4973590;28;20019;-74
2021/03/13 12:41:44;;;;;;;26.55;19.33;;;13.70;99.90;;;;;;4973529;28;20050;-74
2021/03/13 12:44:11;;;;;;;24.10;21.00;;;13.80;99.90;;;;;;4974099;28;20023;-74
2021/03/13 12:46:38;;;;;;;26.77;19.08;;;13.80;99.90;;;;;;4973021;28;20413;-74
2021/03/13 12:49:04;;;;;;;28.70;21.05;;;13.60;99.90;;;;;;4974141;28;20539;-73
2021/03/13 12:51:30;;;;;;;22.25;18.98;;;13.50;99.90;;;;;;4974342;28;20038;-73
2021/03/13 12:53:56;;;;;;;22.27;19.70;;;13.60;99.90;;;;;;4974086;28;20085;-73
2021/03/13 12:56:22;;;;;;;21.15;19.00;;;13.70;99.90;;;;;;4974489;28;20027;-74
2021/03/13 12:58:48;;;;;;;29.60;19.50;;;13.70;99.90;;;;;;4975592;28;20492;-73